Aeroporto :







RITROVATECI SU...

 
LOGIN :

Iscrizione | Disclaimer

   EN    FR    IT 

 









Sommario :    VFR   VFR Marginale   IFR   IFR Intensivo   IFR Molto Intensivo
Visibilità : 
Base nubi : 
>= 8 km
>= 3000ft
5 / 8 km
1000 / 3000 ft
1500m / 5 km
500 / 1000 ft
800 / 1500m
200 / 500 ft
< 800m
< 200 ft
Simboli :   Temporali  Nebbia  Neve Forte  Precipitazioni Forti  Vento > 20 kt







- Altitudine del aeroporto : 11 ft


KGHG - Marshfield Municipal George Harlow Field

ULTIMO METAR :
  • 220355Z AUTO 00000KT 10SM CLR 12/12 A3012 RMK AO2

METARs OBSOLETI :
  • 220335Z AUTO 18004KT 10SM CLR 13/13 A3012 RMK AO2
  • 220315Z AUTO 18005KT 10SM CLR 13/13 A3012 RMK AO2
  • 220255Z AUTO 18006KT 10SM CLR 14/13 A3012 RMK AO2
  • 220235Z AUTO 17007KT 10SM CLR 14/13 A3013 RMK AO2
  • 220215Z AUTO 16005KT 10SM CLR 14/13 A3012 RMK AO2
  • 220155Z AUTO 18005KT 10SM CLR 14/13 A3013 RMK AO2
  • 220135Z AUTO 20003KT 10SM CLR 15/13 A3013 RMK AO2
  • 220115Z AUTO 17006KT 10SM CLR 15/13 A3013 RMK AO2
  • 220055Z AUTO 19005KT 10SM CLR 15/13 A3013 RMK AO2

TAF N/A
FIR KZBW / America del Nord



MetMap, La meteo Aeronautica in un colpo d'occhio ! - Copyright ORBIFLY Dicembre 2007 - Disclaimer

ORBIFLY MET'MAP TEAM :

Programmazione e sviluppo : Alexandra Zaïnal
Concezione e sviluppo : Baudouin d'Aumeries
Co-Programmazione e sviluppo : Marc-Olivier Méhu
Supporto tecnico e logistico : Manuel Goepfert
Aiuto per la traduzione : Arnaldo La Scala

Contatto : metmap@orbifly.com




FONTI E CREDITI :

   NOAA